Time;durP1;ratioP1;P1;durP2;ratioP2;P2;SDS_P1;SDS_P2;PMS_P1;PMS_P2;Temp;Humidity;BMP_temperature;BMP_pressure;BME280_temperature;BME280_humidity;BME280_pressure;Samples;Min_cycle;Max_cycle;Signal;HPM_P1;HPM_P2
2022/06/11 00:01:48;;;;;;;4.03;3.38;;;20.80;64.20;;;;;;5064080;28;20043;-73
2022/06/11 00:04:30;;;;;;;4.88;3.47;;;20.70;64.20;;;;;;5053281;28;20094;-74
2022/06/11 00:07:00;;;;;;;7.60;3.63;;;20.70;64.20;;;;;;5056316;28;20059;-75
2022/06/11 00:09:27;;;;;;;5.07;3.75;;;20.70;64.30;;;;;;5072782;28;20031;-73
2022/06/11 00:11:53;;;;;;;4.28;3.47;;;20.70;64.30;;;;;;5067565;28;20158;-75
2022/06/11 00:14:22;;;;;;;6.35;4.18;;;20.70;64.30;;;;;;5072964;28;20028;-75
2022/06/11 00:16:49;;;;;;;8.75;5.28;;;20.70;64.20;;;;;;5072360;28;20024;-74
2022/06/11 00:19:19;;;;;;;7.72;4.70;;;20.70;64.60;;;;;;5068572;28;20150;-73
2022/06/11 00:21:45;;;;;;;6.78;4.32;;;20.60;64.50;;;;;;5059658;28;20033;-75
2022/06/11 00:24:12;;;;;;;5.25;4.70;;;20.60;64.30;;;;;;5058710;28;20468;-74
2022/06/11 00:26:42;;;;;;;7.70;4.63;;;20.60;64.40;;;;;;5067827;28;20020;-75
2022/06/11 00:29:08;;;;;;;8.05;4.47;;;20.60;64.40;;;;;;5073047;28;20028;-74
2022/06/11 00:31:34;;;;;;;6.07;3.95;;;20.60;64.30;;;;;;5074981;28;20058;-75
2022/06/11 00:34:01;;;;;;;5.03;4.15;;;20.60;64.30;;;;;;5076131;28;20024;-75
2022/06/11 00:36:27;;;;;;;6.35;4.35;;;20.60;64.30;;;;;;5074666;28;20032;-74
2022/06/11 00:38:54;;;;;;;4.60;3.95;;;20.60;64.50;;;;;;5075689;28;20099;-74
2022/06/11 00:41:30;;;;;;;7.50;4.15;;;20.60;64.30;;;;;;5074968;28;20060;-74
2022/06/11 00:43:58;;;;;;;6.55;3.97;;;20.50;64.30;;;;;;5075785;28;20055;-74
2022/06/11 00:46:56;;;;;;;5.10;3.67;;;20.50;64.20;;;;;;5061150;28;20032;-74
2022/06/11 00:49:28;;;;;;;8.52;4.03;;;20.40;64.20;;;;;;5055790;28;20032;-75
2022/06/11 00:52:03;;;;;;;5.95;3.50;;;20.40;64.20;;;;;;5073554;28;20464;-75
2022/06/11 00:54:32;;;;;;;12.25;4.32;;;20.40;64.20;;;;;;5055573;28;20060;-75
2022/06/11 00:57:00;;;;;;;4.32;3.60;;;20.30;64.20;;;;;;5071202;28;20024;-75
2022/06/11 00:59:48;;;;;;;4.47;3.70;;;20.30;64.30;;;;;;5069482;28;20028;-74
2022/06/11 01:02:16;;;;;;;7.95;4.57;;;20.30;64.50;;;;;;5059788;28;20094;-75
2022/06/11 01:04:53;;;;;;;10.55;4.45;;;20.20;64.20;;;;;;5063436;28;20074;-75
2022/06/11 01:07:56;;;;;;;8.90;4.15;;;20.20;64.40;;;;;;5053593;28;20364;-75
2022/06/11 01:10:52;;;;;;;5.68;3.75;;;20.10;64.50;;;;;;5067618;28;20035;-75
2022/06/11 01:13:32;;;;;;;4.97;3.60;;;20.10;64.50;;;;;;5075037;28;20043;-75
2022/06/11 01:16:10;;;;;;;8.35;3.50;;;20.00;64.30;;;;;;5074885;28;20027;-75
2022/06/11 01:19:03;;;;;;;6.72;3.85;;;19.90;64.30;;;;;;5060980;28;20033;-75
2022/06/11 01:21:50;;;;;;;7.90;3.90;;;19.90;64.70;;;;;;5052084;28;20466;-75
2022/06/11 01:24:56;;;;;;;8.77;4.10;;;19.80;64.70;;;;;;5054850;28;20524;-74
2022/06/11 01:27:57;;;;;;;6.30;4.15;;;19.80;65.20;;;;;;5013302;28;20116;-75
2022/06/11 01:30:53;;;;;;;8.63;4.22;;;19.70;65.10;;;;;;5013662;28;20038;-74
2022/06/11 01:33:31;;;;;;;4.72;3.38;;;19.70;65.10;;;;;;5027211;28;20049;-74
2022/06/11 01:36:03;;;;;;;5.18;3.78;;;19.60;65.10;;;;;;5015767;28;20485;-74
2022/06/11 01:38:38;;;;;;;4.43;3.90;;;19.60;65.40;;;;;;5017848;28;20033;-75
2022/06/11 01:41:09;;;;;;;4.35;3.60;;;19.60;65.30;;;;;;5017702;28;20041;-75
2022/06/11 01:43:42;;;;;;;4.70;4.25;;;19.50;65.20;;;;;;5017019;28;20061;-74
2022/06/11 01:46:19;;;;;;;5.80;3.88;;;19.50;65.50;;;;;;5017600;28;20060;-74
2022/06/11 01:49:08;;;;;;;5.75;4.22;;;19.50;65.50;;;;;;5017515;28;20021;-75
2022/06/11 01:51:49;;;;;;;4.97;3.58;;;19.40;65.60;;;;;;5017724;28;20154;-75
2022/06/11 01:54:24;;;;;;;5.38;4.38;;;19.40;65.60;;;;;;5026334;28;20082;-74
2022/06/11 01:57:27;;;;;;;5.63;4.28;;;19.40;66.00;;;;;;5013650;28;20049;-74
2022/06/11 02:00:20;;;;;;;9.52;4.22;;;19.30;66.20;;;;;;4997779;28;20406;-75
2022/06/11 02:03:09;;;;;;;9.57;3.90;;;19.30;66.10;;;;;;5026250;28;20412;-75
2022/06/11 02:05:45;;;;;;;4.40;3.88;;;19.20;65.90;;;;;;5055083;28;20029;-74
2022/06/11 02:08:20;;;;;;;5.70;4.40;;;19.20;66.00;;;;;;5064377;28;20039;-74
2022/06/11 02:11:26;;;;;;;5.25;4.07;;;19.20;65.80;;;;;;5095444;28;20533;-76
2022/06/11 02:14:12;;;;;;;19.15;4.50;;;19.10;66.10;;;;;;5055244;28;20024;-74
2022/06/11 02:16:57;;;;;;;6.13;3.90;;;19.00;66.00;;;;;;5078320;28;20056;-75
2022/06/11 02:19:27;;;;;;;5.45;4.35;;;19.00;65.90;;;;;;5071867;28;20035;-75
2022/06/11 02:22:09;;;;;;;7.90;4.18;;;19.00;66.10;;;;;;5057880;28;20059;-75
2022/06/11 02:24:46;;;;;;;4.25;3.53;;;18.90;66.40;;;;;;5057960;28;20472;-74
2022/06/11 02:27:17;;;;;;;6.10;3.65;;;18.90;66.40;;;;;;5058071;28;20025;-74
2022/06/11 02:29:44;;;;;;;4.82;4.15;;;18.90;66.40;;;;;;5059999;28;20509;-74
2022/06/11 02:32:14;;;;;;;6.88;4.18;;;18.80;66.40;;;;;;5077758;28;20032;-75
2022/06/11 02:34:46;;;;;;;6.97;4.00;;;18.80;66.60;;;;;;5077733;28;20119;-75
2022/06/11 02:37:24;;;;;;;6.88;4.18;;;18.70;66.80;;;;;;5064154;28;20060;-74
2022/06/11 02:39:52;;;;;;;8.02;4.72;;;18.70;66.90;;;;;;5044999;28;20035;-75
2022/06/11 02:42:20;;;;;;;5.65;4.40;;;18.70;66.90;;;;;;5077597;28;20043;-74
2022/06/11 02:44:47;;;;;;;9.85;3.85;;;18.70;66.90;;;;;;5039832;28;20074;-74
2022/06/11 02:47:14;;;;;;;9.10;3.97;;;18.60;66.90;;;;;;5036531;28;20025;-74
2022/06/11 02:49:41;;;;;;;4.10;3.50;;;18.60;67.00;;;;;;5037570;28;20025;-75
2022/06/11 02:52:13;;;;;;;4.25;3.85;;;18.60;67.00;;;;;;5044617;28;20032;-75
2022/06/11 02:54:40;;;;;;;4.97;4.47;;;18.50;67.10;;;;;;5095314;28;20052;-74
2022/06/11 02:57:08;;;;;;;6.88;4.20;;;18.50;67.10;;;;;;5042398;28;20086;-75
2022/06/11 02:59:35;;;;;;;17.27;4.85;;;18.50;67.30;;;;;;5095375;28;20024;-74
2022/06/11 03:02:01;;;;;;;4.90;4.38;;;18.50;67.30;;;;;;5076388;28;20483;-74
2022/06/11 03:04:29;;;;;;;4.22;3.78;;;18.40;67.40;;;;;;5071918;28;20029;-74
2022/06/11 03:06:59;;;;;;;6.65;4.05;;;18.40;67.60;;;;;;5077041;28;20062;-74
2022/06/11 03:09:29;;;;;;;6.45;3.90;;;18.40;67.50;;;;;;5077144;28;20099;-75
2022/06/11 03:11:56;;;;;;;4.10;3.70;;;18.40;67.70;;;;;;5076742;28;20028;-75
2022/06/11 03:14:22;;;;;;;5.63;4.35;;;18.40;67.90;;;;;;5077219;28;20481;-74
2022/06/11 03:16:48;;;;;;;5.00;4.50;;;18.40;68.10;;;;;;5060559;28;20495;-75
2022/06/11 03:19:15;;;;;;;6.15;4.70;;;18.40;68.40;;;;;;5059779;28;20059;-74
2022/06/11 03:21:41;;;;;;;7.43;4.22;;;18.40;68.60;;;;;;5052390;28;20029;-74
2022/06/11 03:24:08;;;;;;;8.25;4.22;;;18.50;68.80;;;;;;5037040;28;20039;-75
2022/06/11 03:26:34;;;;;;;4.30;3.90;;;18.50;68.90;;;;;;5039743;28;20109;-75
2022/06/11 03:29:01;;;;;;;5.60;3.92;;;18.50;68.90;;;;;;5053590;28;20025;-74
2022/06/11 03:31:27;;;;;;;5.55;4.40;;;18.60;69.00;;;;;;5066783;28;20043;-74
2022/06/11 03:33:52;;;;;;;8.07;4.30;;;18.70;69.00;;;;;;5036578;28;20025;-75
2022/06/11 03:36:19;;;;;;;6.20;4.63;;;18.70;69.00;;;;;;5036762;28;20358;-74
2022/06/11 03:38:46;;;;;;;5.47;4.03;;;18.80;68.90;;;;;;5054201;28;20029;-75
2022/06/11 03:41:13;;;;;;;4.65;3.97;;;18.80;68.80;;;;;;5036735;28;20044;-75
2022/06/11 03:43:39;;;;;;;8.05;4.32;;;18.90;68.80;;;;;;5068121;28;20039;-75
2022/06/11 03:46:05;;;;;;;7.15;4.70;;;19.00;68.70;;;;;;5076254;28;20023;-75
2022/06/11 03:48:32;;;;;;;5.38;4.05;;;19.00;68.60;;;;;;5075574;28;20028;-75
2022/06/11 03:50:59;;;;;;;6.00;4.18;;;19.00;68.50;;;;;;5075203;28;20034;-75
2022/06/11 03:53:27;;;;;;;6.43;4.03;;;19.10;68.60;;;;;;5076196;28;20317;-75
2022/06/11 03:55:54;;;;;;;8.15;4.68;;;19.10;68.40;;;;;;5074500;28;20047;-75
2022/06/11 03:58:21;;;;;;;6.13;4.40;;;19.20;68.40;;;;;;5075995;28;20034;-74
2022/06/11 04:03:34;;;;;;;6.50;4.85;;;19.30;68.40;;;;;;5094535;28;20125;-75
2022/06/11 04:06:02;;;;;;;7.05;4.75;;;19.30;68.30;;;;;;5075987;28;20053;-74
2022/06/11 04:08:29;;;;;;;5.65;4.18;;;19.40;68.20;;;;;;5069631;28;20025;-74
2022/06/11 04:10:59;;;;;;;6.65;4.55;;;19.40;68.10;;;;;;5076037;28;20082;-74
2022/06/11 04:13:28;;;;;;;6.95;4.85;;;19.40;68.00;;;;;;5076058;28;20032;-74
2022/06/11 04:15:55;;;;;;;5.68;4.38;;;19.50;67.90;;;;;;5087515;28;20074;-74
2022/06/11 04:18:36;;;;;;;7.00;5.05;;;19.50;67.70;;;;;;5069477;28;20046;-74
2022/06/11 04:21:06;;;;;;;5.57;4.30;;;19.50;67.70;;;;;;5069337;28;20039;-74
2022/06/11 04:23:32;;;;;;;10.07;4.55;;;19.50;67.60;;;;;;5075723;28;20090;-74
2022/06/11 04:26:04;;;;;;;6.68;4.90;;;19.60;67.80;;;;;;5075715;28;20020;-74
2022/06/11 04:28:31;;;;;;;6.55;4.32;;;19.60;67.80;;;;;;5075599;28;20120;-75
2022/06/11 04:30:59;;;;;;;6.55;4.43;;;19.60;67.90;;;;;;5091999;28;20061;-75
2022/06/11 04:33:26;;;;;;;7.60;5.10;;;19.70;68.10;;;;;;5038492;28;20028;-75
2022/06/11 04:35:52;;;;;;;17.75;5.00;;;19.80;68.10;;;;;;5046309;28;20039;-75
2022/06/11 04:38:18;;;;;;;5.88;4.68;;;19.80;68.00;;;;;;5068273;28;20118;-75
2022/06/11 04:40:45;;;;;;;5.97;4.78;;;19.90;67.90;;;;;;5074657;28;20032;-75
2022/06/11 04:43:11;;;;;;;6.28;4.30;;;19.90;67.60;;;;;;5074166;28;20396;-75
2022/06/11 04:45:38;;;;;;;7.50;4.57;;;20.00;67.40;;;;;;5075397;28;20028;-75
2022/06/11 04:48:04;;;;;;;5.72;4.10;;;20.00;67.10;;;;;;5075747;28;20035;-75
2022/06/11 04:50:31;;;;;;;9.57;4.47;;;20.10;66.90;;;;;;5075042;28;20034;-75
2022/06/11 04:52:56;;;;;;;4.35;3.95;;;20.10;66.70;;;;;;5075194;28;20024;-75
2022/06/11 04:55:22;;;;;;;5.25;4.45;;;20.10;66.50;;;;;;5073796;28;20059;-75
2022/06/11 04:57:49;;;;;;;5.15;4.65;;;20.00;66.40;;;;;;5075340;28;20459;-75
2022/06/11 05:00:22;;;;;;;5.68;5.07;;;20.00;67.20;;;;;;5075388;28;20387;-75
2022/06/11 05:02:48;;;;;;;6.60;4.90;;;20.00;66.50;;;;;;5075304;28;20396;-75
2022/06/11 05:05:14;;;;;;;7.72;4.72;;;20.00;66.60;;;;;;5069066;28;20055;-74
2022/06/11 05:07:42;;;;;;;5.45;4.43;;;20.00;66.70;;;;;;5074971;28;20028;-74
2022/06/11 05:10:09;;;;;;;9.82;4.30;;;20.00;66.80;;;;;;5074505;28;20024;-75
2022/06/11 05:12:35;;;;;;;5.38;4.88;;;20.10;66.90;;;;;;5074698;28;20024;-75
2022/06/11 05:15:01;;;;;;;5.50;4.25;;;20.10;66.80;;;;;;5089340;28;20089;-75
2022/06/11 05:17:27;;;;;;;6.88;4.47;;;20.10;66.70;;;;;;5058715;28;20058;-75
2022/06/11 05:19:54;;;;;;;8.88;4.93;;;20.20;66.80;;;;;;5092581;28;20032;-75
2022/06/11 05:22:20;;;;;;;5.53;4.65;;;20.20;66.80;;;;;;5035113;28;20033;-74
2022/06/11 05:24:46;;;;;;;9.10;4.93;;;20.20;66.80;;;;;;5035101;28;20035;-74
2022/06/11 05:27:16;;;;;;;5.18;4.68;;;20.20;67.00;;;;;;5044229;28;20493;-75
2022/06/11 05:29:54;;;;;;;6.22;5.00;;;20.30;67.20;;;;;;5073111;28;20081;-75
2022/06/11 05:32:24;;;;;;;6.75;5.20;;;20.40;67.30;;;;;;5055264;28;20029;-74
2022/06/11 05:34:51;;;;;;;5.85;4.32;;;20.50;67.00;;;;;;5051613;28;20024;-74
2022/06/11 05:37:17;;;;;;;6.93;5.20;;;20.60;66.90;;;;;;5044357;28;20025;-74
2022/06/11 05:39:46;;;;;;;6.40;4.80;;;20.70;66.80;;;;;;5060373;28;20024;-75
2022/06/11 05:42:12;;;;;;;11.13;5.40;;;20.80;66.70;;;;;;5070445;28;20166;-74
2022/06/11 05:44:38;;;;;;;9.70;5.72;;;20.80;66.50;;;;;;5075023;28;20032;-74
2022/06/11 05:47:06;;;;;;;10.65;5.35;;;21.00;66.30;;;;;;5068939;28;20028;-75
2022/06/11 05:49:37;;;;;;;8.02;5.50;;;21.10;66.10;;;;;;5054788;28;20353;-75
2022/06/11 05:52:13;;;;;;;9.65;6.05;;;21.20;65.80;;;;;;5054839;28;20039;-75
2022/06/11 05:54:40;;;;;;;10.05;5.85;;;21.30;65.70;;;;;;5062636;28;20099;-75
2022/06/11 05:57:09;;;;;;;14.00;6.75;;;21.40;65.40;;;;;;5052344;28;20029;-75
2022/06/11 05:59:43;;;;;;;10.57;7.25;;;21.50;64.70;;;;;;5034680;28;20128;-75
2022/06/11 06:02:10;;;;;;;;;;;21.60;64.40;;;;;;5035401;28;20037;-75
2022/06/11 06:04:37;;;;;;;11.57;5.97;;;21.80;65.10;;;;;;5039285;28;20261;-75
2022/06/11 06:07:05;;;;;;;7.38;5.50;;;21.90;64.20;;;;;;5074198;28;20027;-76
2022/06/11 06:09:31;;;;;;;9.43;4.97;;;22.00;63.80;;;;;;5074492;28;20086;-75
2022/06/11 06:11:57;;;;;;;8.13;4.85;;;22.10;63.30;;;;;;5074416;28;20464;-74
2022/06/11 06:14:23;;;;;;;5.18;4.25;;;22.20;62.30;;;;;;5064238;28;20028;-73
2022/06/11 06:16:49;;;;;;;5.50;4.22;;;22.30;62.10;;;;;;5059082;28;20102;-73
2022/06/11 06:19:16;;;;;;;7.55;4.60;;;22.30;62.20;;;;;;5048478;28;20033;-73
2022/06/11 06:21:42;;;;;;;5.55;4.50;;;22.40;61.40;;;;;;5042922;28;20415;-74
2022/06/11 06:24:10;;;;;;;4.85;4.00;;;22.40;61.10;;;;;;5057867;28;20483;-74
2022/06/11 06:26:36;;;;;;;6.30;4.78;;;22.50;60.90;;;;;;5067927;28;20040;-74
2022/06/11 06:29:03;;;;;;;5.15;3.88;;;22.50;60.60;;;;;;5071492;28;20039;-75
2022/06/11 06:31:29;;;;;;;4.93;3.92;;;22.50;60.60;;;;;;5075383;28;20032;-74
2022/06/11 06:33:59;;;;;;;11.68;4.47;;;22.50;60.50;;;;;;5069093;28;20067;-74
2022/06/11 06:36:25;;;;;;;6.03;5.00;;;22.40;60.20;;;;;;5077811;28;20059;-73
2022/06/11 06:38:51;;;;;;;6.35;5.40;;;22.40;60.20;;;;;;5047160;28;20080;-74
2022/06/11 06:41:18;;;;;;;5.22;4.63;;;22.30;60.10;;;;;;5054375;28;20064;-74
2022/06/11 06:43:44;;;;;;;7.65;5.03;;;22.30;60.30;;;;;;5075588;28;20488;-74
2022/06/11 06:46:11;;;;;;;7.03;4.30;;;22.30;60.50;;;;;;5057337;28;20037;-74
2022/06/11 06:48:37;;;;;;;14.75;5.03;;;22.30;61.00;;;;;;5052367;28;20036;-74
2022/06/11 06:51:04;;;;;;;6.60;5.30;;;22.40;61.10;;;;;;5047086;28;20033;-74
2022/06/11 06:53:31;;;;;;;10.75;5.20;;;22.50;60.60;;;;;;5056746;28;20082;-74
2022/06/11 06:55:57;;;;;;;8.85;4.97;;;22.50;60.10;;;;;;5060093;28;20496;-74
2022/06/11 06:58:23;;;;;;;7.75;5.10;;;22.60;59.90;;;;;;5055631;28;20024;-74
2022/06/11 07:00:50;;;;;;;5.65;5.05;;;22.70;59.40;;;;;;5037527;28;20029;-73
2022/06/11 07:03:17;;;;;;;8.02;5.10;;;22.80;59.40;;;;;;5092323;28;20028;-73
2022/06/11 07:05:43;;;;;;;5.97;4.40;;;22.90;58.80;;;;;;5095986;28;20063;-74
2022/06/11 07:08:11;;;;;;;4.95;4.32;;;23.00;59.00;;;;;;5070881;28;20036;-74
2022/06/11 07:10:37;;;;;;;8.13;4.97;;;23.00;58.80;;;;;;5039599;28;20086;-74
2022/06/11 07:13:03;;;;;;;6.78;4.80;;;23.10;58.30;;;;;;5070970;28;20067;-73
2022/06/11 07:15:30;;;;;;;7.38;4.88;;;23.10;58.10;;;;;;5063683;28;20115;-73
2022/06/11 07:18:05;;;;;;;5.28;4.03;;;23.20;58.10;;;;;;5073123;28;20434;-74
2022/06/11 07:20:36;;;;;;;6.32;4.50;;;23.30;57.60;;;;;;5069150;28;20452;-73
2022/06/11 07:23:05;;;;;;;7.22;4.00;;;23.30;57.40;;;;;;5046234;28;20380;-74
2022/06/11 07:25:31;;;;;;;4.93;4.10;;;23.40;57.30;;;;;;5053701;28;20124;-73
2022/06/11 07:28:04;;;;;;;7.65;3.97;;;23.40;56.80;;;;;;5037169;28;20021;-74
2022/06/11 07:30:35;;;;;;;5.10;4.00;;;23.40;56.60;;;;;;5053644;28;20031;-73
2022/06/11 07:33:15;;;;;;;5.78;4.63;;;23.40;56.60;;;;;;5053055;28;20107;-74
2022/06/11 07:35:41;;;;;;;5.13;3.55;;;23.40;56.00;;;;;;5073710;28;20024;-74
2022/06/11 07:38:12;;;;;;;4.78;4.15;;;23.50;56.30;;;;;;5062923;28;20461;-74
2022/06/11 07:40:39;;;;;;;3.95;3.55;;;23.50;56.10;;;;;;5053578;28;20028;-74
2022/06/11 07:43:09;;;;;;;8.23;3.83;;;23.40;56.00;;;;;;5056670;28;20082;-74
2022/06/11 07:45:37;;;;;;;6.05;3.67;;;23.40;56.00;;;;;;5075627;28;20032;-73
2022/06/11 07:48:03;;;;;;;4.18;3.78;;;23.40;56.10;;;;;;5066955;28;20028;-73
2022/06/11 07:50:31;;;;;;;6.00;4.07;;;23.40;55.80;;;;;;5073180;28;20032;-74
2022/06/11 07:52:58;;;;;;;5.22;4.03;;;23.40;55.70;;;;;;5073135;28;20031;-74
2022/06/11 07:55:25;;;;;;;8.70;3.90;;;23.50;55.50;;;;;;5072805;28;20057;-74
2022/06/11 07:57:52;;;;;;;8.43;4.60;;;23.50;55.60;;;;;;5057146;28;20036;-74
2022/06/11 08:00:23;;;;;;;5.88;4.10;;;23.50;55.20;;;;;;5054839;28;20401;-74
2022/06/11 08:02:48;;;;;;;5.63;4.15;;;23.60;55.30;;;;;;5072935;28;20028;-74
2022/06/11 08:05:14;;;;;;;4.90;3.78;;;23.60;55.10;;;;;;5053253;28;20039;-75
2022/06/11 08:07:41;;;;;;;3.75;3.38;;;23.60;54.40;;;;;;5071824;28;20060;-74
2022/06/11 08:10:07;;;;;;;4.13;2.80;;;23.70;54.60;;;;;;5072800;28;20020;-74
2022/06/11 08:12:33;;;;;;;7.45;3.75;;;23.70;54.60;;;;;;5069495;28;20074;-75
2022/06/11 08:14:59;;;;;;;5.97;3.17;;;23.80;54.40;;;;;;5056055;28;20032;-75
2022/06/11 08:17:27;;;;;;;4.60;3.67;;;23.80;54.40;;;;;;5056116;28;20507;-74
2022/06/11 08:20:00;;;;;;;5.57;3.47;;;23.90;54.00;;;;;;5055992;28;20063;-74
2022/06/11 08:22:26;;;;;;;3.97;3.00;;;24.00;53.60;;;;;;5056055;28;20105;-74
2022/06/11 08:24:52;;;;;;;7.13;3.72;;;24.00;53.80;;;;;;5073895;28;20040;-74
2022/06/11 08:27:18;;;;;;;4.65;3.00;;;24.10;53.80;;;;;;5058004;28;20029;-74
2022/06/11 08:29:45;;;;;;;6.57;3.47;;;24.10;53.30;;;;;;5050911;28;20126;-75
2022/06/11 08:32:11;;;;;;;4.60;3.22;;;24.20;53.00;;;;;;5072113;28;20029;-75
2022/06/11 08:34:39;;;;;;;7.57;3.35;;;24.30;53.10;;;;;;5072302;28;20452;-75
2022/06/11 08:37:05;;;;;;;7.22;3.03;;;24.30;52.60;;;;;;5074831;28;20071;-75
2022/06/11 08:39:31;;;;;;;5.93;3.78;;;24.40;52.30;;;;;;5075809;28;20063;-75
2022/06/11 08:42:01;;;;;;;12.45;4.82;;;24.40;51.90;;;;;;5052134;28;20058;-74
2022/06/11 08:44:30;;;;;;;5.90;3.28;;;24.50;52.10;;;;;;5054236;28;20040;-75
2022/06/11 08:47:02;;;;;;;8.85;3.97;;;24.60;51.70;;;;;;5060685;28;20062;-74
2022/06/11 08:49:35;;;;;;;3.95;2.95;;;24.70;51.70;;;;;;5075454;28;20032;-74
2022/06/11 08:52:13;;;;;;;3.78;2.40;;;24.80;51.80;;;;;;5074583;28;20032;-75
2022/06/11 08:54:42;;;;;;;5.95;2.70;;;24.90;52.20;;;;;;5074837;28;20052;-75
2022/06/11 08:57:28;;;;;;;5.20;2.85;;;25.00;51.40;;;;;;5073828;28;20043;-74
2022/06/11 09:00:02;;;;;;;4.47;2.95;;;25.10;51.50;;;;;;5059294;28;20381;-75
2022/06/11 09:02:31;;;;;;;;;;;25.20;51.30;;;;;;5055642;28;20029;-75
2022/06/11 09:05:08;;;;;;;6.70;3.63;;;25.30;52.70;;;;;;5051527;28;20003;-75
2022/06/11 09:07:53;;;;;;;3.25;2.92;;;25.50;51.50;;;;;;5051873;28;20025;-75
2022/06/11 09:10:47;;;;;;;4.60;3.05;;;25.70;51.20;;;;;;5061735;28;20041;-75
2022/06/11 09:13:13;;;;;;;4.90;3.20;;;25.80;50.00;;;;;;5050926;28;20408;-75
2022/06/11 09:15:45;;;;;;;4.85;3.53;;;26.00;49.80;;;;;;5066669;28;20502;-75
2022/06/11 09:18:20;;;;;;;5.32;2.67;;;26.00;49.80;;;;;;5066789;28;20036;-74
2022/06/11 09:21:36;;;;;;;4.68;3.15;;;26.20;49.80;;;;;;5065898;28;20067;-75
2022/06/11 09:24:22;;;;;;;6.60;2.83;;;26.30;50.20;;;;;;5034996;28;20070;-76
2022/06/11 09:27:34;;;;;;;5.10;3.30;;;26.40;48.60;;;;;;5039643;28;20039;-76
2022/06/11 09:30:08;;;;;;;10.05;3.47;;;26.60;48.90;;;;;;4988248;28;20510;-76
2022/06/11 09:32:51;;;;;;;4.38;2.95;;;26.70;47.80;;;;;;4996120;28;20429;-76
2022/06/11 09:35:25;;;;;;;4.70;3.15;;;26.70;47.60;;;;;;4975098;28;20050;-76
2022/06/11 09:37:57;;;;;;;5.13;3.05;;;26.70;48.10;;;;;;4990055;28;20121;-76
2022/06/11 09:40:35;;;;;;;4.88;2.72;;;26.70;48.10;;;;;;4987930;28;20092;-76
2022/06/11 09:43:17;;;;;;;5.60;3.00;;;26.80;47.80;;;;;;4994508;28;20104;-75
2022/06/11 09:46:11;;;;;;;3.10;2.35;;;26.90;47.30;;;;;;4984555;28;20033;-75
2022/06/11 09:49:10;;;;;;;10.20;2.40;;;27.20;47.30;;;;;;4984840;28;20437;-75
2022/06/11 09:51:57;;;;;;;4.32;2.70;;;27.40;46.60;;;;;;4971760;28;20073;-75
2022/06/11 09:54:33;;;;;;;4.38;2.50;;;27.80;46.50;;;;;;4970435;28;20057;-75
2022/06/11 09:57:24;;;;;;;3.58;2.75;;;28.10;46.20;;;;;;4996107;28;20121;-75
2022/06/11 09:59:56;;;;;;;2.90;2.10;;;28.40;44.50;;;;;;4992280;28;20426;-74
2022/06/11 10:03:13;;;;;;;4.82;2.25;;;28.60;44.30;;;;;;4978350;28;20030;-74
2022/06/11 10:06:10;;;;;;;3.35;1.90;;;28.90;43.50;;;;;;4999944;28;20472;-75
2022/06/11 10:08:48;;;;;;;3.17;2.33;;;29.10;43.10;;;;;;5052496;28;20035;-74
2022/06/11 10:11:57;;;;;;;3.53;2.50;;;29.30;43.50;;;;;;5049445;28;20029;-71
2022/06/11 10:14:50;;;;;;;3.67;2.30;;;29.60;43.40;;;;;;5050865;28;20031;-74
2022/06/11 10:17:34;;;;;;;5.65;2.03;;;29.60;40.80;;;;;;5020554;28;20173;-75
2022/06/11 10:20:45;;;;;;;3.42;2.25;;;29.60;39.80;;;;;;5036482;28;20457;-77
2022/06/11 10:23:26;;;;;;;3.15;1.88;;;29.50;42.30;;;;;;4974425;28;20510;-76
2022/06/11 10:26:05;;;;;;;7.28;2.83;;;29.50;41.50;;;;;;4958078;28;20525;-77
2022/06/11 10:28:35;;;;;;;3.60;2.28;;;29.50;40.00;;;;;;4974708;28;20039;-76
2022/06/11 10:31:19;;;;;;;3.20;2.00;;;29.50;39.40;;;;;;4973262;28;20038;-77
2022/06/11 10:34:08;;;;;;;2.92;1.80;;;29.50;40.10;;;;;;4979133;28;20500;-77
2022/06/11 10:36:49;;;;;;;6.07;2.00;;;29.60;39.80;;;;;;4981653;28;20497;-76
2022/06/11 10:39:30;;;;;;;6.03;2.08;;;29.60;39.10;;;;;;4990396;28;20026;-76
2022/06/11 10:42:15;;;;;;;4.97;2.10;;;29.70;39.80;;;;;;4967547;28;20628;-76
2022/06/11 10:44:54;;;;;;;5.97;1.90;;;29.80;38.50;;;;;;4977370;28;20044;-75
2022/06/11 10:47:47;;;;;;;5.10;1.92;;;29.80;37.90;;;;;;4993913;28;20433;-75
2022/06/11 10:50:28;;;;;;;2.95;1.80;;;29.70;37.50;;;;;;4977098;28;20461;-75
2022/06/11 10:53:14;;;;;;;2.38;1.80;;;29.70;38.00;;;;;;4994115;28;20072;-75
2022/06/11 10:55:52;;;;;;;1.60;1.50;;;29.60;38.30;;;;;;5036506;28;20138;-75
2022/06/11 10:58:38;;;;;;;3.03;1.55;;;29.50;38.40;;;;;;5037423;28;20067;-75
2022/06/11 11:01:27;;;;;;;2.45;1.77;;;29.50;38.80;;;;;;5034141;28;20465;-77
2022/06/11 11:04:06;;;;;;;2.88;2.05;;;29.50;38.90;;;;;;5031203;28;20045;-76
2022/06/11 11:06:35;;;;;;;3.10;2.17;;;29.40;38.20;;;;;;5032201;28;20428;-76
2022/06/11 11:09:07;;;;;;;2.97;1.92;;;29.50;38.80;;;;;;5044364;28;20044;-76
2022/06/11 11:11:58;;;;;;;4.13;1.80;;;29.50;38.90;;;;;;5043924;28;20033;-75
2022/06/11 11:14:37;;;;;;;3.35;1.80;;;29.50;39.20;;;;;;5061973;28;20465;-75
2022/06/11 11:17:06;;;;;;;2.65;1.60;;;29.50;38.80;;;;;;5037307;28;20568;-75
2022/06/11 11:19:39;;;;;;;1.52;1.35;;;29.50;39.20;;;;;;5037315;28;20029;-75
2022/06/11 11:22:04;;;;;;;1.92;1.40;;;29.50;39.10;;;;;;5037302;28;20029;-76
2022/06/11 11:24:46;;;;;;;2.40;1.67;;;29.40;38.50;;;;;;5025383;28;20028;-75
2022/06/11 11:27:30;;;;;;;3.20;2.00;;;29.40;39.20;;;;;;5074814;28;20560;-75
2022/06/11 11:30:01;;;;;;;11.73;2.63;;;29.40;39.20;;;;;;5055094;28;20029;-75
2022/06/11 11:32:33;;;;;;;8.20;1.95;;;29.40;39.60;;;;;;5046371;28;20497;-75
2022/06/11 11:35:14;;;;;;;3.78;1.50;;;29.40;39.40;;;;;;5055032;28;20036;-75
2022/06/11 11:37:41;;;;;;;4.97;1.92;;;29.40;39.40;;;;;;5047264;28;20021;-74
2022/06/11 11:40:33;;;;;;;5.50;1.77;;;29.40;39.50;;;;;;5042056;28;20028;-75
2022/06/11 11:43:05;;;;;;;2.72;2.00;;;29.40;39.60;;;;;;5055426;28;20112;-74
2022/06/11 11:45:58;;;;;;;4.65;1.88;;;29.30;39.60;;;;;;5043786;28;20025;-75
2022/06/11 11:48:37;;;;;;;5.90;2.00;;;29.20;40.00;;;;;;5039315;28;20094;-76
2022/06/11 11:51:07;;;;;;;3.15;2.10;;;29.20;40.70;;;;;;5056295;28;20438;-79
2022/06/11 11:53:41;;;;;;;3.30;2.10;;;29.20;41.00;;;;;;5042618;28;20026;-75
2022/06/11 11:56:28;;;;;;;4.95;2.60;;;29.20;40.70;;;;;;5055970;28;20056;-75
2022/06/11 11:59:16;;;;;;;8.15;2.80;;;29.20;41.20;;;;;;5042485;28;20079;-75
2022/06/11 12:01:44;;;;;;;8.93;2.50;;;29.30;41.50;;;;;;5008209;28;20045;-75
2022/06/11 12:04:19;;;;;;;3.13;2.25;;;29.50;41.30;;;;;;5034124;28;20032;-75
2022/06/11 12:06:55;;;;;;;4.10;2.13;;;29.60;41.40;;;;;;5055016;28;20059;-75
2022/06/11 12:09:36;;;;;;;6.35;3.47;;;29.70;41.10;;;;;;5049307;28;20072;-78
2022/06/11 12:12:13;;;;;;;4.45;2.50;;;29.90;40.10;;;;;;5017998;28;20060;-75
2022/06/11 12:14:47;;;;;;;2.75;2.17;;;30.00;40.30;;;;;;5030910;28;20033;-76
2022/06/11 12:17:20;;;;;;;3.70;2.08;;;30.00;39.70;;;;;;5061637;28;20056;-75
2022/06/11 12:19:55;;;;;;;4.83;2.30;;;30.00;39.70;;;;;;5051591;28;20096;-75
2022/06/11 12:22:29;;;;;;;1.85;1.48;;;30.00;38.30;;;;;;5047308;28;20108;-75
2022/06/11 12:24:57;;;;;;;3.10;1.70;;;30.10;38.30;;;;;;5050817;28;20030;-75
2022/06/11 12:27:28;;;;;;;5.40;1.63;;;30.20;36.70;;;;;;5051919;28;20033;-74
2022/06/11 12:30:13;;;;;;;2.63;1.30;;;30.30;36.20;;;;;;5048932;28;20462;-75
2022/06/11 12:32:39;;;;;;;4.72;1.30;;;30.50;36.10;;;;;;5034416;28;20043;-76
2022/06/11 12:35:42;;;;;;;1.85;1.10;;;30.70;35.30;;;;;;5045202;28;20025;-76
2022/06/11 12:38:31;;;;;;;1.95;1.08;;;31.00;34.30;;;;;;5022701;28;20029;-76
2022/06/11 12:41:21;;;;;;;2.65;1.23;;;31.30;34.90;;;;;;5052578;28;20028;-76
2022/06/11 12:44:25;;;;;;;1.95;1.10;;;31.60;34.60;;;;;;5052863;28;20507;-75
2022/06/11 12:47:05;;;;;;;2.05;1.10;;;31.70;33.20;;;;;;5045290;28;20465;-75
2022/06/11 12:49:48;;;;;;;2.15;1.35;;;31.80;30.90;;;;;;5049879;28;20104;-75
2022/06/11 12:52:42;;;;;;;2.15;1.17;;;31.80;31.30;;;;;;5052685;28;20070;-75
2022/06/11 12:55:25;;;;;;;2.10;1.40;;;31.70;31.40;;;;;;5034829;28;20053;-75
2022/06/11 12:58:07;;;;;;;3.92;1.20;;;31.50;31.60;;;;;;5025661;28;20116;-75
2022/06/11 13:00:55;;;;;;;4.38;1.60;;;31.50;31.40;;;;;;5034875;28;20024;-75
2022/06/11 13:03:50;;;;;;;2.67;1.15;;;31.40;32.30;;;;;;5044989;28;20068;-76
2022/06/11 13:06:46;;;;;;;1.35;1.00;;;31.40;32.60;;;;;;5035134;28;20120;-75
2022/06/11 13:09:51;;;;;;;1.40;1.05;;;31.40;31.70;;;;;;5014969;28;20025;-75
2022/06/11 13:13:01;;;;;;;4.00;1.23;;;31.40;31.40;;;;;;4997142;28;20144;-77
2022/06/11 13:15:44;;;;;;;1.85;1.17;;;31.40;31.50;;;;;;4971827;28;20109;-75
2022/06/11 13:18:13;;;;;;;0.97;0.83;;;31.50;31.90;;;;;;4971838;28;20135;-76
2022/06/11 13:20:50;;;;;;;1.50;1.15;;;31.50;31.40;;;;;;4998994;28;20276;-75
2022/06/11 13:23:30;;;;;;;5.00;1.23;;;31.60;31.90;;;;;;5015263;28;20033;-75
2022/06/11 13:26:17;;;;;;;7.50;1.40;;;31.50;32.60;;;;;;5044347;28;20025;-77